sensor_id;sensor_type;location;lat;lon;timestamp;P1;durP1;ratioP1;P2;durP2;ratioP2
60426;SDS011;46274;47.168;27.604;2023-05-16T00:05:45;6.77;;;2.53;;
60426;SDS011;46274;47.168;27.604;2023-05-16T00:11:53;5.97;;;3.33;;
60426;SDS011;46274;47.168;27.604;2023-05-16T00:17:56;12.83;;;3.10;;
60426;SDS011;46274;47.168;27.604;2023-05-16T00:24:02;6.97;;;3.00;;
60426;SDS011;46274;47.168;27.604;2023-05-16T00:30:07;7.87;;;2.57;;
60426;SDS011;46274;47.168;27.604;2023-05-16T00:36:09;10.50;;;2.80;;
60426;SDS011;46274;47.168;27.604;2023-05-16T00:42:11;6.37;;;3.40;;
60426;SDS011;46274;47.168;27.604;2023-05-16T00:48:14;5.07;;;2.70;;
60426;SDS011;46274;47.168;27.604;2023-05-16T00:54:17;8.17;;;2.50;;
60426;SDS011;46274;47.168;27.604;2023-05-16T01:00:21;7.60;;;2.97;;
60426;SDS011;46274;47.168;27.604;2023-05-16T01:06:24;8.53;;;2.60;;
60426;SDS011;46274;47.168;27.604;2023-05-16T01:12:33;4.60;;;2.37;;
60426;SDS011;46274;47.168;27.604;2023-05-16T01:32:00;10.10;;;2.80;;
60426;SDS011;46274;47.168;27.604;2023-05-16T01:38:09;4.77;;;3.30;;
60426;SDS011;46274;47.168;27.604;2023-05-16T01:44:22;9.23;;;2.30;;
60426;SDS011;46274;47.168;27.604;2023-05-16T01:50:31;7.60;;;2.87;;
60426;SDS011;46274;47.168;27.604;2023-05-16T01:56:38;6.30;;;2.93;;
60426;SDS011;46274;47.168;27.604;2023-05-16T02:02:44;8.73;;;3.73;;
60426;SDS011;46274;47.168;27.604;2023-05-16T02:08:47;5.43;;;2.40;;
60426;SDS011;46274;47.168;27.604;2023-05-16T02:14:51;11.23;;;2.83;;
60426;SDS011;46274;47.168;27.604;2023-05-16T02:20:54;7.03;;;2.90;;
60426;SDS011;46274;47.168;27.604;2023-05-16T02:27:00;8.97;;;2.97;;
60426;SDS011;46274;47.168;27.604;2023-05-16T02:33:04;6.33;;;2.93;;
60426;SDS011;46274;47.168;27.604;2023-05-16T02:39:07;18.07;;;3.17;;
60426;SDS011;46274;47.168;27.604;2023-05-16T02:45:10;12.13;;;3.10;;
60426;SDS011;46274;47.168;27.604;2023-05-16T02:51:13;7.90;;;2.67;;
60426;SDS011;46274;47.168;27.604;2023-05-16T02:57:15;7.97;;;2.30;;
60426;SDS011;46274;47.168;27.604;2023-05-16T03:03:25;11.43;;;2.17;;
60426;SDS011;46274;47.168;27.604;2023-05-16T03:09:28;6.60;;;2.27;;
60426;SDS011;46274;47.168;27.604;2023-05-16T03:15:30;9.90;;;2.23;;
60426;SDS011;46274;47.168;27.604;2023-05-16T03:21:32;7.03;;;2.23;;
60426;SDS011;46274;47.168;27.604;2023-05-16T03:27:34;10.90;;;2.63;;
60426;SDS011;46274;47.168;27.604;2023-05-16T03:33:41;6.30;;;2.30;;
60426;SDS011;46274;47.168;27.604;2023-05-16T03:39:44;4.53;;;2.23;;
60426;SDS011;46274;47.168;27.604;2023-05-16T03:45:46;7.43;;;2.47;;
60426;SDS011;46274;47.168;27.604;2023-05-16T03:51:52;5.87;;;2.97;;
60426;SDS011;46274;47.168;27.604;2023-05-16T03:57:54;5.57;;;2.60;;
60426;SDS011;46274;47.168;27.604;2023-05-16T04:03:57;15.50;;;3.20;;
60426;SDS011;46274;47.168;27.604;2023-05-16T04:09:59;10.80;;;3.10;;
60426;SDS011;46274;47.168;27.604;2023-05-16T04:16:02;10.87;;;3.07;;
60426;SDS011;46274;47.168;27.604;2023-05-16T04:22:04;10.87;;;2.23;;
60426;SDS011;46274;47.168;27.604;2023-05-16T04:28:07;9.80;;;2.03;;
60426;SDS011;46274;47.168;27.604;2023-05-16T04:34:11;5.63;;;2.00;;
60426;SDS011;46274;47.168;27.604;2023-05-16T04:40:16;7.50;;;3.30;;
60426;SDS011;46274;47.168;27.604;2023-05-16T04:46:42;4.27;;;2.10;;
60426;SDS011;46274;47.168;27.604;2023-05-16T04:52:45;7.20;;;2.10;;
60426;SDS011;46274;47.168;27.604;2023-05-16T04:58:47;10.33;;;3.00;;
60426;SDS011;46274;47.168;27.604;2023-05-16T05:05:14;5.87;;;2.33;;
60426;SDS011;46274;47.168;27.604;2023-05-16T05:11:31;10.93;;;2.90;;
60426;SDS011;46274;47.168;27.604;2023-05-16T05:17:33;8.77;;;3.40;;
60426;SDS011;46274;47.168;27.604;2023-05-16T05:23:35;8.57;;;3.13;;
60426;SDS011;46274;47.168;27.604;2023-05-16T05:29:38;6.97;;;2.83;;
60426;SDS011;46274;47.168;27.604;2023-05-16T05:35:42;6.00;;;3.03;;
60426;SDS011;46274;47.168;27.604;2023-05-16T05:41:45;8.20;;;3.23;;
60426;SDS011;46274;47.168;27.604;2023-05-16T05:47:51;14.40;;;4.80;;
60426;SDS011;46274;47.168;27.604;2023-05-16T05:53:54;17.63;;;3.77;;
60426;SDS011;46274;47.168;27.604;2023-05-16T05:59:57;21.67;;;5.40;;
60426;SDS011;46274;47.168;27.604;2023-05-16T06:05:59;14.67;;;4.00;;
60426;SDS011;46274;47.168;27.604;2023-05-16T06:12:02;23.90;;;6.10;;
60426;SDS011;46274;47.168;27.604;2023-05-16T06:18:05;6.10;;;2.73;;
60426;SDS011;46274;47.168;27.604;2023-05-16T06:24:09;7.47;;;3.60;;
60426;SDS011;46274;47.168;27.604;2023-05-16T06:36:22;4.73;;;2.70;;
60426;SDS011;46274;47.168;27.604;2023-05-16T06:48:47;7.17;;;3.13;;
60426;SDS011;46274;47.168;27.604;2023-05-16T06:54:56;8.17;;;3.33;;
60426;SDS011;46274;47.168;27.604;2023-05-16T07:00:58;7.17;;;3.00;;
60426;SDS011;46274;47.168;27.604;2023-05-16T07:13:27;10.67;;;4.50;;
60426;SDS011;46274;47.168;27.604;2023-05-16T07:19:33;13.67;;;5.00;;
60426;SDS011;46274;47.168;27.604;2023-05-16T07:25:43;8.87;;;4.30;;
60426;SDS011;46274;47.168;27.604;2023-05-16T07:32:01;9.10;;;4.10;;
60426;SDS011;46274;47.168;27.604;2023-05-16T07:38:07;16.63;;;6.20;;
60426;SDS011;46274;47.168;27.604;2023-05-16T07:51:36;10.50;;;4.27;;
60426;SDS011;46274;47.168;27.604;2023-05-16T07:57:48;6.30;;;3.20;;
60426;SDS011;46274;47.168;27.604;2023-05-16T08:04:01;12.57;;;4.57;;
60426;SDS011;46274;47.168;27.604;2023-05-16T08:10:12;14.27;;;4.40;;
60426;SDS011;46274;47.168;27.604;2023-05-16T08:29:37;11.60;;;3.80;;
60426;SDS011;46274;47.168;27.604;2023-05-16T08:35:41;17.37;;;5.37;;
60426;SDS011;46274;47.168;27.604;2023-05-16T08:41:45;12.17;;;4.23;;
60426;SDS011;46274;47.168;27.604;2023-05-16T08:47:54;18.83;;;6.13;;
60426;SDS011;46274;47.168;27.604;2023-05-16T08:54:12;14.37;;;4.00;;
60426;SDS011;46274;47.168;27.604;2023-05-16T09:06:46;10.80;;;4.30;;
60426;SDS011;46274;47.168;27.604;2023-05-16T09:12:57;16.07;;;5.57;;
60426;SDS011;46274;47.168;27.604;2023-05-16T09:25:19;13.63;;;4.53;;
60426;SDS011;46274;47.168;27.604;2023-05-16T09:31:29;11.30;;;4.07;;
60426;SDS011;46274;47.168;27.604;2023-05-16T09:37:42;13.73;;;4.97;;
60426;SDS011;46274;47.168;27.604;2023-05-16T09:43:49;7.67;;;3.77;;
60426;SDS011;46274;47.168;27.604;2023-05-16T09:50:01;11.07;;;4.50;;
60426;SDS011;46274;47.168;27.604;2023-05-16T09:56:04;11.13;;;4.17;;
60426;SDS011;46274;47.168;27.604;2023-05-16T10:02:16;9.93;;;4.53;;
60426;SDS011;46274;47.168;27.604;2023-05-16T10:08:21;13.20;;;5.33;;
60426;SDS011;46274;47.168;27.604;2023-05-16T10:14:27;9.57;;;4.57;;
60426;SDS011;46274;47.168;27.604;2023-05-16T10:20:34;15.13;;;4.00;;
60426;SDS011;46274;47.168;27.604;2023-05-16T10:26:38;11.67;;;4.30;;
60426;SDS011;46274;47.168;27.604;2023-05-16T10:32:40;10.73;;;3.20;;
60426;SDS011;46274;47.168;27.604;2023-05-16T10:38:43;13.33;;;4.00;;
60426;SDS011;46274;47.168;27.604;2023-05-16T10:51:33;8.93;;;3.47;;
60426;SDS011;46274;47.168;27.604;2023-05-16T10:57:40;14.67;;;3.83;;
60426;SDS011;46274;47.168;27.604;2023-05-16T11:22:31;10.97;;;3.33;;
60426;SDS011;46274;47.168;27.604;2023-05-16T11:28:35;8.97;;;4.60;;
60426;SDS011;46274;47.168;27.604;2023-05-16T11:34:37;10.40;;;4.07;;
60426;SDS011;46274;47.168;27.604;2023-05-16T11:40:41;14.07;;;5.37;;
60426;SDS011;46274;47.168;27.604;2023-05-16T11:46:45;11.20;;;5.15;;
60426;SDS011;46274;47.168;27.604;2023-05-16T11:52:52;14.40;;;4.50;;
60426;SDS011;46274;47.168;27.604;2023-05-16T11:58:59;9.45;;;4.25;;
60426;SDS011;46274;47.168;27.604;2023-05-16T12:05:09;9.48;;;3.90;;
60426;SDS011;46274;47.168;27.604;2023-05-16T12:11:13;6.32;;;3.78;;
60426;SDS011;46274;47.168;27.604;2023-05-16T12:17:15;12.00;;;4.10;;
60426;SDS011;46274;47.168;27.604;2023-05-16T12:23:18;14.93;;;3.97;;
60426;SDS011;46274;47.168;27.604;2023-05-16T12:29:20;12.23;;;3.78;;
60426;SDS011;46274;47.168;27.604;2023-05-16T12:35:29;7.70;;;3.50;;
60426;SDS011;46274;47.168;27.604;2023-05-16T12:41:33;12.77;;;4.38;;
60426;SDS011;46274;47.168;27.604;2023-05-16T12:47:43;7.05;;;3.60;;
60426;SDS011;46274;47.168;27.604;2023-05-16T12:53:47;11.02;;;3.72;;
60426;SDS011;46274;47.168;27.604;2023-05-16T13:00:10;16.00;;;4.93;;
60426;SDS011;46274;47.168;27.604;2023-05-16T13:06:18;12.35;;;4.70;;
60426;SDS011;46274;47.168;27.604;2023-05-16T13:12:22;14.73;;;4.95;;
60426;SDS011;46274;47.168;27.604;2023-05-16T13:18:34;18.55;;;5.40;;
60426;SDS011;46274;47.168;27.604;2023-05-16T13:24:37;9.45;;;3.60;;
60426;SDS011;46274;47.168;27.604;2023-05-16T13:30:39;9.02;;;3.40;;
60426;SDS011;46274;47.168;27.604;2023-05-16T13:36:43;6.78;;;3.03;;
60426;SDS011;46274;47.168;27.604;2023-05-16T13:42:54;6.93;;;3.22;;
60426;SDS011;46274;47.168;27.604;2023-05-16T13:48:58;23.90;;;4.53;;
60426;SDS011;46274;47.168;27.604;2023-05-16T13:55:03;13.93;;;4.68;;
60426;SDS011;46274;47.168;27.604;2023-05-16T14:01:06;12.38;;;3.90;;
60426;SDS011;46274;47.168;27.604;2023-05-16T14:07:08;10.98;;;3.80;;
60426;SDS011;46274;47.168;27.604;2023-05-16T14:13:11;9.68;;;2.78;;
60426;SDS011;46274;47.168;27.604;2023-05-16T14:19:16;12.00;;;3.00;;
60426;SDS011;46274;47.168;27.604;2023-05-16T14:25:21;9.60;;;2.90;;
60426;SDS011;46274;47.168;27.604;2023-05-16T14:31:28;14.98;;;3.22;;
60426;SDS011;46274;47.168;27.604;2023-05-16T14:37:31;10.82;;;4.25;;
60426;SDS011;46274;47.168;27.604;2023-05-16T14:43:38;9.82;;;2.92;;
60426;SDS011;46274;47.168;27.604;2023-05-16T14:49:43;15.50;;;3.40;;
60426;SDS011;46274;47.168;27.604;2023-05-16T14:55:48;15.00;;;3.60;;
60426;SDS011;46274;47.168;27.604;2023-05-16T15:01:51;8.75;;;2.75;;
60426;SDS011;46274;47.168;27.604;2023-05-16T15:07:56;10.25;;;3.00;;
60426;SDS011;46274;47.168;27.604;2023-05-16T15:14:00;10.52;;;3.10;;
60426;SDS011;46274;47.168;27.604;2023-05-16T15:20:06;5.03;;;2.63;;
60426;SDS011;46274;47.168;27.604;2023-05-16T15:26:13;7.60;;;3.20;;
60426;SDS011;46274;47.168;27.604;2023-05-16T15:32:15;7.03;;;2.80;;
60426;SDS011;46274;47.168;27.604;2023-05-16T15:38:18;11.52;;;3.15;;
60426;SDS011;46274;47.168;27.604;2023-05-16T15:44:20;13.68;;;2.72;;
60426;SDS011;46274;47.168;27.604;2023-05-16T15:50:24;6.93;;;2.83;;
60426;SDS011;46274;47.168;27.604;2023-05-16T15:56:27;9.52;;;2.97;;
60426;SDS011;46274;47.168;27.604;2023-05-16T16:02:30;13.48;;;2.97;;
60426;SDS011;46274;47.168;27.604;2023-05-16T16:08:32;14.68;;;3.10;;
60426;SDS011;46274;47.168;27.604;2023-05-16T16:14:34;10.45;;;3.45;;
60426;SDS011;46274;47.168;27.604;2023-05-16T16:20:37;10.63;;;3.45;;
60426;SDS011;46274;47.168;27.604;2023-05-16T16:26:41;9.55;;;3.42;;
60426;SDS011;46274;47.168;27.604;2023-05-16T16:32:49;7.97;;;2.88;;
60426;SDS011;46274;47.168;27.604;2023-05-16T16:38:54;5.90;;;3.17;;
60426;SDS011;46274;47.168;27.604;2023-05-16T16:45:00;12.80;;;3.28;;
60426;SDS011;46274;47.168;27.604;2023-05-16T16:51:16;8.40;;;3.00;;
60426;SDS011;46274;47.168;27.604;2023-05-16T16:57:20;9.13;;;3.22;;
60426;SDS011;46274;47.168;27.604;2023-05-16T17:03:22;8.93;;;2.85;;
60426;SDS011;46274;47.168;27.604;2023-05-16T17:09:27;9.30;;;2.72;;
60426;SDS011;46274;47.168;27.604;2023-05-16T17:15:29;5.22;;;2.90;;
60426;SDS011;46274;47.168;27.604;2023-05-16T17:21:32;9.25;;;3.00;;
60426;SDS011;46274;47.168;27.604;2023-05-16T17:27:56;9.23;;;2.30;;
60426;SDS011;46274;47.168;27.604;2023-05-16T17:33:59;12.57;;;2.70;;
60426;SDS011;46274;47.168;27.604;2023-05-16T17:40:01;15.32;;;3.40;;
60426;SDS011;46274;47.168;27.604;2023-05-16T17:46:05;9.32;;;2.60;;
60426;SDS011;46274;47.168;27.604;2023-05-16T17:52:08;8.07;;;2.58;;
60426;SDS011;46274;47.168;27.604;2023-05-16T17:58:10;6.63;;;2.70;;
60426;SDS011;46274;47.168;27.604;2023-05-16T18:04:14;5.60;;;2.60;;
60426;SDS011;46274;47.168;27.604;2023-05-16T18:10:18;8.27;;;2.70;;
60426;SDS011;46274;47.168;27.604;2023-05-16T18:16:21;9.95;;;3.25;;
60426;SDS011;46274;47.168;27.604;2023-05-16T18:22:27;5.75;;;3.05;;
60426;SDS011;46274;47.168;27.604;2023-05-16T18:28:30;15.82;;;3.15;;
60426;SDS011;46274;47.168;27.604;2023-05-16T18:34:32;7.63;;;2.90;;
60426;SDS011;46274;47.168;27.604;2023-05-16T18:40:35;11.67;;;3.77;;
60426;SDS011;46274;47.168;27.604;2023-05-16T18:46:37;15.82;;;3.40;;
60426;SDS011;46274;47.168;27.604;2023-05-16T18:52:40;7.23;;;3.10;;
60426;SDS011;46274;47.168;27.604;2023-05-16T18:58:42;8.93;;;2.90;;
60426;SDS011;46274;47.168;27.604;2023-05-16T19:04:45;9.90;;;2.80;;
60426;SDS011;46274;47.168;27.604;2023-05-16T19:10:47;7.60;;;3.00;;
60426;SDS011;46274;47.168;27.604;2023-05-16T19:16:50;10.90;;;2.97;;
60426;SDS011;46274;47.168;27.604;2023-05-16T19:22:54;10.43;;;2.50;;
60426;SDS011;46274;47.168;27.604;2023-05-16T19:28:57;12.13;;;2.97;;
60426;SDS011;46274;47.168;27.604;2023-05-16T19:35:02;9.83;;;2.87;;
60426;SDS011;46274;47.168;27.604;2023-05-16T19:41:09;9.60;;;3.10;;
60426;SDS011;46274;47.168;27.604;2023-05-16T19:47:12;10.27;;;2.83;;
60426;SDS011;46274;47.168;27.604;2023-05-16T19:53:20;9.67;;;2.63;;
60426;SDS011;46274;47.168;27.604;2023-05-16T19:59:27;9.37;;;2.70;;
60426;SDS011;46274;47.168;27.604;2023-05-16T20:05:29;6.73;;;2.97;;
60426;SDS011;46274;47.168;27.604;2023-05-16T20:11:32;10.33;;;2.60;;
60426;SDS011;46274;47.168;27.604;2023-05-16T20:17:35;5.00;;;2.40;;
60426;SDS011;46274;47.168;27.604;2023-05-16T20:23:53;5.53;;;2.43;;
60426;SDS011;46274;47.168;27.604;2023-05-16T20:30:04;8.80;;;2.40;;
60426;SDS011;46274;47.168;27.604;2023-05-16T20:36:08;10.87;;;2.40;;
60426;SDS011;46274;47.168;27.604;2023-05-16T20:42:10;3.20;;;2.07;;
60426;SDS011;46274;47.168;27.604;2023-05-16T20:48:15;8.03;;;2.43;;
60426;SDS011;46274;47.168;27.604;2023-05-16T20:54:18;3.60;;;2.13;;
60426;SDS011;46274;47.168;27.604;2023-05-16T21:00:22;8.13;;;2.53;;
60426;SDS011;46274;47.168;27.604;2023-05-16T21:06:27;11.07;;;2.57;;
60426;SDS011;46274;47.168;27.604;2023-05-16T21:12:31;6.53;;;2.33;;
60426;SDS011;46274;47.168;27.604;2023-05-16T21:18:33;12.80;;;3.13;;
60426;SDS011;46274;47.168;27.604;2023-05-16T21:24:36;5.00;;;2.13;;
60426;SDS011;46274;47.168;27.604;2023-05-16T21:30:40;9.83;;;2.37;;
60426;SDS011;46274;47.168;27.604;2023-05-16T21:36:50;4.37;;;2.23;;
60426;SDS011;46274;47.168;27.604;2023-05-16T21:42:54;5.53;;;2.50;;
60426;SDS011;46274;47.168;27.604;2023-05-16T21:49:06;5.10;;;2.20;;
60426;SDS011;46274;47.168;27.604;2023-05-16T21:55:13;4.67;;;2.20;;
60426;SDS011;46274;47.168;27.604;2023-05-16T22:01:16;5.47;;;2.63;;
60426;SDS011;46274;47.168;27.604;2023-05-16T22:07:21;7.60;;;2.33;;
60426;SDS011;46274;47.168;27.604;2023-05-16T22:13:31;5.00;;;2.13;;
60426;SDS011;46274;47.168;27.604;2023-05-16T22:19:33;8.00;;;2.33;;
60426;SDS011;46274;47.168;27.604;2023-05-16T22:25:38;10.03;;;2.43;;
60426;SDS011;46274;47.168;27.604;2023-05-16T22:31:52;4.57;;;2.07;;
60426;SDS011;46274;47.168;27.604;2023-05-16T22:37:55;4.90;;;2.60;;
60426;SDS011;46274;47.168;27.604;2023-05-16T22:44:00;7.80;;;3.00;;
60426;SDS011;46274;47.168;27.604;2023-05-16T22:50:05;9.33;;;2.80;;
60426;SDS011;46274;47.168;27.604;2023-05-16T22:56:10;6.87;;;2.40;;
60426;SDS011;46274;47.168;27.604;2023-05-16T23:02:16;4.50;;;2.20;;
60426;SDS011;46274;47.168;27.604;2023-05-16T23:08:18;4.30;;;2.20;;
60426;SDS011;46274;47.168;27.604;2023-05-16T23:14:21;6.37;;;2.13;;
60426;SDS011;46274;47.168;27.604;2023-05-16T23:20:26;8.67;;;2.60;;
60426;SDS011;46274;47.168;27.604;2023-05-16T23:26:29;9.77;;;2.60;;
60426;SDS011;46274;47.168;27.604;2023-05-16T23:32:34;8.80;;;2.60;;
60426;SDS011;46274;47.168;27.604;2023-05-16T23:38:38;4.73;;;2.40;;
60426;SDS011;46274;47.168;27.604;2023-05-16T23:44:41;8.07;;;2.83;;
60426;SDS011;46274;47.168;27.604;2023-05-16T23:50:44;5.47;;;2.13;;
60426;SDS011;46274;47.168;27.604;2023-05-16T23:56:49;9.73;;;2.87;;
